sensor_id;sensor_type;location;lat;lon;timestamp;pressure;altitude;pressure_sealevel;temperature;humidity
12868;BME280;33517;49.866;8.320;2023-02-03T00:02:05;101618.75;;;8.18;89.76
12868;BME280;33517;49.866;8.320;2023-02-03T00:04:57;101611.72;;;8.18;90.49
12868;BME280;33517;49.866;8.320;2023-02-03T00:07:51;101628.50;;;8.16;89.42
12868;BME280;33517;49.866;8.320;2023-02-03T00:10:43;101643.19;;;8.18;89.46
12868;BME280;33517;49.866;8.320;2023-02-03T00:13:35;101643.66;;;8.23;89.98
12868;BME280;33517;49.866;8.320;2023-02-03T00:16:27;101630.34;;;8.26;89.96
12868;BME280;33517;49.866;8.320;2023-02-03T00:19:19;101607.56;;;8.27;90.26
12868;BME280;33517;49.866;8.320;2023-02-03T00:22:11;101599.69;;;8.27;89.78
12868;BME280;33517;49.866;8.320;2023-02-03T00:25:05;101591.22;;;8.23;89.73
12868;BME280;33517;49.866;8.320;2023-02-03T00:27:57;101578.72;;;8.16;89.49
12868;BME280;33517;49.866;8.320;2023-02-03T00:30:48;101578.13;;;8.12;90.23
12868;BME280;33517;49.866;8.320;2023-02-03T00:33:43;101588.34;;;8.15;90.41
12868;BME280;33517;49.866;8.320;2023-02-03T00:36:35;101586.81;;;8.13;89.69
12868;BME280;33517;49.866;8.320;2023-02-03T00:39:27;101609.56;;;8.12;90.18
12868;BME280;33517;49.866;8.320;2023-02-03T00:42:20;101611.00;;;8.16;89.85
12868;BME280;33517;49.866;8.320;2023-02-03T00:45:12;101614.09;;;8.21;89.87
12868;BME280;33517;49.866;8.320;2023-02-03T00:48:04;101615.66;;;8.35;89.35
12868;BME280;33517;49.866;8.320;2023-02-03T00:50:56;101611.50;;;8.44;88.98
12868;BME280;33517;49.866;8.320;2023-02-03T00:53:48;101596.94;;;8.40;89.46
12868;BME280;33517;49.866;8.320;2023-02-03T00:56:40;101596.59;;;8.33;88.82
12868;BME280;33517;49.866;8.320;2023-02-03T00:59:33;101597.91;;;8.27;88.77
12868;BME280;33517;49.866;8.320;2023-02-03T01:02:25;101587.75;;;8.23;89.39
12868;BME280;33517;49.866;8.320;2023-02-03T01:05:17;101583.47;;;8.22;90.23
12868;BME280;33517;49.866;8.320;2023-02-03T01:08:09;101571.94;;;8.24;90.36
12868;BME280;33517;49.866;8.320;2023-02-03T01:11:05;101561.19;;;8.27;90.10
12868;BME280;33517;49.866;8.320;2023-02-03T01:13:57;101546.44;;;8.26;90.09
12868;BME280;33517;49.866;8.320;2023-02-03T01:16:52;101530.44;;;8.29;89.92
12868;BME280;33517;49.866;8.320;2023-02-03T01:19:44;101528.66;;;8.30;90.91
12868;BME280;33517;49.866;8.320;2023-02-03T01:22:36;101533.53;;;8.34;90.63
12868;BME280;33517;49.866;8.320;2023-02-03T01:25:28;101544.13;;;8.33;90.58
12868;BME280;33517;49.866;8.320;2023-02-03T01:28:20;101559.03;;;8.44;91.12
12868;BME280;33517;49.866;8.320;2023-02-03T01:31:13;101574.28;;;8.50;90.96
12868;BME280;33517;49.866;8.320;2023-02-03T01:34:10;101552.31;;;8.51;90.91
12868;BME280;33517;49.866;8.320;2023-02-03T01:37:02;101557.31;;;8.54;90.71
12868;BME280;33517;49.866;8.320;2023-02-03T01:39:53;101540.06;;;8.51;90.12
12868;BME280;33517;49.866;8.320;2023-02-03T01:42:45;101547.66;;;8.54;90.88
12868;BME280;33517;49.866;8.320;2023-02-03T01:45:38;101537.44;;;8.51;90.18
12868;BME280;33517;49.866;8.320;2023-02-03T01:48:31;101540.50;;;8.56;90.93
12868;BME280;33517;49.866;8.320;2023-02-03T01:51:26;101536.53;;;8.62;90.21
12868;BME280;33517;49.866;8.320;2023-02-03T01:54:22;101525.69;;;8.66;89.78
12868;BME280;33517;49.866;8.320;2023-02-03T01:57:18;101530.09;;;8.66;90.35
12868;BME280;33517;49.866;8.320;2023-02-03T02:00:13;101533.56;;;8.66;90.38
12868;BME280;33517;49.866;8.320;2023-02-03T02:03:05;101528.09;;;8.58;90.57
12868;BME280;33517;49.866;8.320;2023-02-03T02:06:01;101525.59;;;8.57;90.51
12868;BME280;33517;49.866;8.320;2023-02-03T02:08:57;101514.97;;;8.58;90.31
12868;BME280;33517;49.866;8.320;2023-02-03T02:11:50;101508.06;;;8.57;90.01
12868;BME280;33517;49.866;8.320;2023-02-03T02:14:43;101518.66;;;8.56;91.25
12868;BME280;33517;49.866;8.320;2023-02-03T02:18:00;101514.97;;;8.58;90.30
12868;BME280;33517;49.866;8.320;2023-02-03T02:21:21;101511.16;;;8.62;90.03
12868;BME280;33517;49.866;8.320;2023-02-03T02:28:10;101505.53;;;8.67;90.36
12868;BME280;33517;49.866;8.320;2023-02-03T02:31:28;101515.31;;;8.65;90.38
12868;BME280;33517;49.866;8.320;2023-02-03T02:34:25;101542.38;;;8.65;90.70
12868;BME280;33517;49.866;8.320;2023-02-03T02:37:25;101554.53;;;8.66;90.32
12868;BME280;33517;49.866;8.320;2023-02-03T02:40:27;101560.38;;;8.70;90.41
12868;BME280;33517;49.866;8.320;2023-02-03T02:43:27;101556.66;;;8.72;89.79
12868;BME280;33517;49.866;8.320;2023-02-03T02:46:26;101548.41;;;8.77;90.15
12868;BME280;33517;49.866;8.320;2023-02-03T02:49:26;101549.59;;;8.73;90.55
12868;BME280;33517;49.866;8.320;2023-02-03T02:52:22;101555.69;;;8.73;90.55
12868;BME280;33517;49.866;8.320;2023-02-03T02:55:20;101550.22;;;8.76;90.32
12868;BME280;33517;49.866;8.320;2023-02-03T02:58:15;101565.84;;;8.78;89.87
12868;BME280;33517;49.866;8.320;2023-02-03T03:01:08;101583.38;;;8.77;89.58
12868;BME280;33517;49.866;8.320;2023-02-03T03:04:04;101591.44;;;8.85;90.19
12868;BME280;33517;49.866;8.320;2023-02-03T03:06:59;101597.91;;;8.81;89.96
12868;BME280;33517;49.866;8.320;2023-02-03T03:09:54;101600.78;;;8.78;90.36
12868;BME280;33517;49.866;8.320;2023-02-03T03:12:53;101595.28;;;8.81;90.52
12868;BME280;33517;49.866;8.320;2023-02-03T03:15:49;101590.28;;;8.78;90.56
12868;BME280;33517;49.866;8.320;2023-02-03T03:18:45;101568.09;;;8.71;91.48
12868;BME280;33517;49.866;8.320;2023-02-03T03:21:41;101564.19;;;8.66;91.32
12868;BME280;33517;49.866;8.320;2023-02-03T03:24:39;101550.00;;;8.68;91.67
12868;BME280;33517;49.866;8.320;2023-02-03T03:27:36;101550.94;;;8.67;91.39
12868;BME280;33517;49.866;8.320;2023-02-03T03:30:33;101549.09;;;8.58;91.45
12868;BME280;33517;49.866;8.320;2023-02-03T03:33:26;101549.91;;;8.59;91.97
12868;BME280;33517;49.866;8.320;2023-02-03T03:36:22;101544.09;;;8.55;93.11
12868;BME280;33517;49.866;8.320;2023-02-03T03:39:19;101556.25;;;8.56;92.51
12868;BME280;33517;49.866;8.320;2023-02-03T03:42:20;101546.25;;;8.50;93.27
12868;BME280;33517;49.866;8.320;2023-02-03T03:45:16;101540.19;;;8.38;94.12
12868;BME280;33517;49.866;8.320;2023-02-03T03:48:13;101532.81;;;8.32;95.17
12868;BME280;33517;49.866;8.320;2023-02-03T03:51:09;101536.16;;;8.34;94.96
12868;BME280;33517;49.866;8.320;2023-02-03T03:54:06;101532.91;;;8.42;95.03
12868;BME280;33517;49.866;8.320;2023-02-03T03:57:04;101543.47;;;8.52;94.31
12868;BME280;33517;49.866;8.320;2023-02-03T04:00:02;101554.47;;;8.57;94.30
12868;BME280;33517;49.866;8.320;2023-02-03T04:02:58;101546.00;;;8.53;93.99
12868;BME280;33517;49.866;8.320;2023-02-03T04:05:51;101540.91;;;8.41;94.06
12868;BME280;33517;49.866;8.320;2023-02-03T04:08:43;101514.66;;;8.41;94.33
12868;BME280;33517;49.866;8.320;2023-02-03T04:11:35;101509.66;;;8.49;93.30
12868;BME280;33517;49.866;8.320;2023-02-03T04:14:44;101518.50;;;8.48;92.61
12868;BME280;33517;49.866;8.320;2023-02-03T04:17:37;101519.28;;;8.48;92.85
12868;BME280;33517;49.866;8.320;2023-02-03T04:20:30;101527.66;;;8.53;91.95
12868;BME280;33517;49.866;8.320;2023-02-03T04:23:23;101520.22;;;8.58;91.74
12868;BME280;33517;49.866;8.320;2023-02-03T04:26:14;101518.31;;;8.60;91.36
12868;BME280;33517;49.866;8.320;2023-02-03T04:29:06;101532.25;;;8.61;90.93
12868;BME280;33517;49.866;8.320;2023-02-03T04:31:58;101538.34;;;8.61;91.15
12868;BME280;33517;49.866;8.320;2023-02-03T04:34:51;101539.78;;;8.54;91.11
12868;BME280;33517;49.866;8.320;2023-02-03T04:37:43;101542.53;;;8.53;92.18
12868;BME280;33517;49.866;8.320;2023-02-03T04:40:36;101535.75;;;8.50;92.92
12868;BME280;33517;49.866;8.320;2023-02-03T04:43:27;101521.69;;;8.51;92.95
12868;BME280;33517;49.866;8.320;2023-02-03T04:46:19;101517.16;;;8.53;92.64
12868;BME280;33517;49.866;8.320;2023-02-03T04:49:12;101509.03;;;8.56;91.72
12868;BME280;33517;49.866;8.320;2023-02-03T04:52:05;101504.63;;;8.57;91.57
12868;BME280;33517;49.866;8.320;2023-02-03T04:54:57;101505.31;;;8.59;91.34
12868;BME280;33517;49.866;8.320;2023-02-03T04:57:54;101526.81;;;8.53;92.11
12868;BME280;33517;49.866;8.320;2023-02-03T05:00:46;101545.75;;;8.56;92.16
12868;BME280;33517;49.866;8.320;2023-02-03T05:03:37;101539.44;;;8.59;91.07
12868;BME280;33517;49.866;8.320;2023-02-03T05:06:29;101548.84;;;8.61;91.76
12868;BME280;33517;49.866;8.320;2023-02-03T05:09:23;101551.78;;;8.68;91.68
12868;BME280;33517;49.866;8.320;2023-02-03T05:12:15;101559.53;;;8.69;91.17
12868;BME280;33517;49.866;8.320;2023-02-03T05:15:08;101563.25;;;8.67;91.06
12868;BME280;33517;49.866;8.320;2023-02-03T05:18:00;101541.44;;;8.66;91.22
12868;BME280;33517;49.866;8.320;2023-02-03T05:20:51;101540.84;;;8.63;91.91
12868;BME280;33517;49.866;8.320;2023-02-03T05:23:43;101538.72;;;8.57;92.38
12868;BME280;33517;49.866;8.320;2023-02-03T05:26:37;101535.44;;;8.44;93.07
12868;BME280;33517;49.866;8.320;2023-02-03T05:29:29;101523.03;;;8.34;94.43
12868;BME280;33517;49.866;8.320;2023-02-03T05:32:20;101521.63;;;8.30;94.80
12868;BME280;33517;49.866;8.320;2023-02-03T05:35:12;101520.94;;;8.28;95.05
12868;BME280;33517;49.866;8.320;2023-02-03T05:38:04;101510.44;;;8.28;95.50
12868;BME280;33517;49.866;8.320;2023-02-03T05:40:56;101523.78;;;8.25;95.50
12868;BME280;33517;49.866;8.320;2023-02-03T05:44:07;101520.81;;;8.30;94.60
12868;BME280;33517;49.866;8.320;2023-02-03T05:46:59;101504.09;;;8.31;94.04
12868;BME280;33517;49.866;8.320;2023-02-03T05:49:51;101484.31;;;8.38;94.55
12868;BME280;33517;49.866;8.320;2023-02-03T05:52:43;101493.81;;;8.39;94.02
12868;BME280;33517;49.866;8.320;2023-02-03T05:55:36;101492.63;;;8.43;93.19
12868;BME280;33517;49.866;8.320;2023-02-03T05:58:28;101490.13;;;8.42;94.02
12868;BME280;33517;49.866;8.320;2023-02-03T06:01:21;101497.72;;;8.45;93.70
12868;BME280;33517;49.866;8.320;2023-02-03T06:04:13;101491.91;;;8.41;93.85
12868;BME280;33517;49.866;8.320;2023-02-03T06:07:05;101488.56;;;8.39;93.51
12868;BME280;33517;49.866;8.320;2023-02-03T06:09:57;101491.53;;;8.46;93.69
12868;BME280;33517;49.866;8.320;2023-02-03T06:12:49;101495.94;;;8.45;93.60
12868;BME280;33517;49.866;8.320;2023-02-03T06:15:42;101485.81;;;8.41;92.63
12868;BME280;33517;49.866;8.320;2023-02-03T06:18:36;101487.38;;;8.43;93.53
12868;BME280;33517;49.866;8.320;2023-02-03T06:21:27;101478.31;;;8.47;92.80
12868;BME280;33517;49.866;8.320;2023-02-03T06:24:19;101485.91;;;8.50;92.52
12868;BME280;33517;49.866;8.320;2023-02-03T06:27:11;101478.75;;;8.52;92.78
12868;BME280;33517;49.866;8.320;2023-02-03T06:30:03;101477.81;;;8.53;92.16
12868;BME280;33517;49.866;8.320;2023-02-03T06:32:55;101477.66;;;8.55;91.62
12868;BME280;33517;49.866;8.320;2023-02-03T06:35:49;101474.91;;;8.56;92.36
12868;BME280;33517;49.866;8.320;2023-02-03T06:38:41;101474.69;;;8.59;91.54
12868;BME280;33517;49.866;8.320;2023-02-03T06:41:32;101484.19;;;8.60;91.10
12868;BME280;33517;49.866;8.320;2023-02-03T06:44:24;101484.78;;;8.64;91.75
12868;BME280;33517;49.866;8.320;2023-02-03T06:47:16;101484.66;;;8.65;90.61
12868;BME280;33517;49.866;8.320;2023-02-03T06:50:10;101497.06;;;8.63;90.46
12868;BME280;33517;49.866;8.320;2023-02-03T06:53:03;101506.09;;;8.70;90.99
12868;BME280;33517;49.866;8.320;2023-02-03T06:55:55;101519.94;;;8.72;90.55
12868;BME280;33517;49.866;8.320;2023-02-03T06:58:47;101523.28;;;8.74;89.89
12868;BME280;33517;49.866;8.320;2023-02-03T07:01:39;101523.00;;;8.77;89.43
12868;BME280;33517;49.866;8.320;2023-02-03T07:04:31;101525.19;;;8.72;88.88
12868;BME280;33517;49.866;8.320;2023-02-03T07:07:23;101535.41;;;8.75;88.81
12868;BME280;33517;49.866;8.320;2023-02-03T07:10:16;101541.38;;;8.77;88.25
12868;BME280;33517;49.866;8.320;2023-02-03T07:13:08;101544.00;;;8.77;88.77
12868;BME280;33517;49.866;8.320;2023-02-03T07:16:00;101545.53;;;8.80;88.89
12868;BME280;33517;49.866;8.320;2023-02-03T07:18:52;101539.19;;;8.82;88.43
12868;BME280;33517;49.866;8.320;2023-02-03T07:21:44;101555.78;;;8.83;87.20
12868;BME280;33517;49.866;8.320;2023-02-03T07:24:36;101551.25;;;8.85;87.55
12868;BME280;33517;49.866;8.320;2023-02-03T07:27:30;101541.59;;;8.85;87.15
12868;BME280;33517;49.866;8.320;2023-02-03T07:30:22;101544.50;;;8.92;88.15
12868;BME280;33517;49.866;8.320;2023-02-03T07:33:14;101546.34;;;8.91;87.14
12868;BME280;33517;49.866;8.320;2023-02-03T07:36:09;101539.59;;;8.98;86.62
12868;BME280;33517;49.866;8.320;2023-02-03T07:39:02;101548.69;;;8.94;87.47
12868;BME280;33517;49.866;8.320;2023-02-03T07:41:53;101535.25;;;8.88;87.44
12868;BME280;33517;49.866;8.320;2023-02-03T07:44:47;101524.50;;;8.91;87.21
12868;BME280;33517;49.866;8.320;2023-02-03T07:47:39;101531.03;;;8.96;86.89
12868;BME280;33517;49.866;8.320;2023-02-03T07:50:30;101539.88;;;8.95;87.15
12868;BME280;33517;49.866;8.320;2023-02-03T07:53:23;101540.81;;;8.94;87.38
12868;BME280;33517;49.866;8.320;2023-02-03T07:56:15;101529.94;;;8.99;87.11
12868;BME280;33517;49.866;8.320;2023-02-03T07:59:06;101522.19;;;8.97;86.82
12868;BME280;33517;49.866;8.320;2023-02-03T08:02:00;101532.38;;;8.91;87.26
12868;BME280;33517;49.866;8.320;2023-02-03T08:04:52;101537.69;;;9.00;86.80
12868;BME280;33517;49.866;8.320;2023-02-03T08:07:44;101536.59;;;9.03;86.11
12868;BME280;33517;49.866;8.320;2023-02-03T08:10:36;101560.53;;;9.09;86.36
12868;BME280;33517;49.866;8.320;2023-02-03T08:13:28;101547.63;;;9.17;85.66
12868;BME280;33517;49.866;8.320;2023-02-03T08:16:20;101552.72;;;9.19;86.08
12868;BME280;33517;49.866;8.320;2023-02-03T08:19:13;101556.97;;;9.10;85.67
12868;BME280;33517;49.866;8.320;2023-02-03T08:22:05;101554.34;;;9.10;86.10
12868;BME280;33517;49.866;8.320;2023-02-03T08:24:57;101540.44;;;9.19;85.32
12868;BME280;33517;49.866;8.320;2023-02-03T08:27:49;101536.97;;;9.19;85.55
12868;BME280;33517;49.866;8.320;2023-02-03T08:30:41;101534.63;;;9.16;85.06
12868;BME280;33517;49.866;8.320;2023-02-03T08:33:33;101541.16;;;9.21;84.83
12868;BME280;33517;49.866;8.320;2023-02-03T08:36:26;101544.53;;;9.33;85.16
12868;BME280;33517;49.866;8.320;2023-02-03T08:39:18;101534.66;;;9.46;84.61
12868;BME280;33517;49.866;8.320;2023-02-03T08:42:10;101526.25;;;9.52;84.22
12868;BME280;33517;49.866;8.320;2023-02-03T08:45:02;101524.72;;;9.50;84.33
12868;BME280;33517;49.866;8.320;2023-02-03T08:47:55;101528.88;;;9.52;84.25
12868;BME280;33517;49.866;8.320;2023-02-03T08:50:47;101516.88;;;9.59;84.10
12868;BME280;33517;49.866;8.320;2023-02-03T08:53:43;101516.50;;;9.64;83.46
12868;BME280;33517;49.866;8.320;2023-02-03T08:56:35;101521.47;;;9.67;83.15
12868;BME280;33517;49.866;8.320;2023-02-03T08:59:27;101525.81;;;9.77;82.84
12868;BME280;33517;49.866;8.320;2023-02-03T09:02:19;101527.88;;;9.74;82.03
12868;BME280;33517;49.866;8.320;2023-02-03T09:05:11;101519.47;;;9.80;81.89
12868;BME280;33517;49.866;8.320;2023-02-03T09:08:04;101526.13;;;9.93;81.77
12868;BME280;33517;49.866;8.320;2023-02-03T09:10:57;101534.44;;;9.89;80.91
12868;BME280;33517;49.866;8.320;2023-02-03T09:13:49;101536.94;;;9.90;80.96
12868;BME280;33517;49.866;8.320;2023-02-03T09:16:41;101529.72;;;9.83;80.33
12868;BME280;33517;49.866;8.320;2023-02-03T09:19:33;101542.00;;;9.82;80.27
12868;BME280;33517;49.866;8.320;2023-02-03T09:22:25;101535.91;;;9.82;79.95
12868;BME280;33517;49.866;8.320;2023-02-03T09:25:17;101531.34;;;9.84;79.93
12868;BME280;33517;49.866;8.320;2023-02-03T09:28:10;101519.38;;;9.91;79.28
12868;BME280;33517;49.866;8.320;2023-02-03T09:31:04;101519.09;;;9.94;79.16
12868;BME280;33517;49.866;8.320;2023-02-03T09:33:57;101526.28;;;10.01;78.51
12868;BME280;33517;49.866;8.320;2023-02-03T09:36:49;101531.03;;;10.07;77.93
12868;BME280;33517;49.866;8.320;2023-02-03T09:39:41;101534.69;;;10.16;77.12
12868;BME280;33517;49.866;8.320;2023-02-03T09:42:54;101530.53;;;10.23;76.76
12868;BME280;33517;49.866;8.320;2023-02-03T09:45:50;101534.03;;;10.33;76.44
12868;BME280;33517;49.866;8.320;2023-02-03T09:48:46;101526.53;;;10.29;77.12
12868;BME280;33517;49.866;8.320;2023-02-03T09:51:42;101524.22;;;10.35;76.97
12868;BME280;33517;49.866;8.320;2023-02-03T09:54:40;101535.84;;;10.42;76.19
12868;BME280;33517;49.866;8.320;2023-02-03T09:57:36;101540.00;;;10.45;76.39
12868;BME280;33517;49.866;8.320;2023-02-03T10:00:34;101538.63;;;10.41;75.68
12868;BME280;33517;49.866;8.320;2023-02-03T10:03:32;101518.81;;;10.37;75.88
12868;BME280;33517;49.866;8.320;2023-02-03T10:06:32;101521.00;;;10.41;75.77
12868;BME280;33517;49.866;8.320;2023-02-03T10:09:35;101527.81;;;10.53;75.78
12868;BME280;33517;49.866;8.320;2023-02-03T10:16:10;101528.78;;;10.52;74.75
12868;BME280;33517;49.866;8.320;2023-02-03T10:19:10;101536.53;;;10.44;74.98
12868;BME280;33517;49.866;8.320;2023-02-03T10:22:04;101517.41;;;10.42;74.91
12868;BME280;33517;49.866;8.320;2023-02-03T10:24:59;101512.00;;;10.44;74.97
12868;BME280;33517;49.866;8.320;2023-02-03T10:27:54;101510.38;;;10.52;74.74
12868;BME280;33517;49.866;8.320;2023-02-03T10:30:51;101504.56;;;10.68;74.37
12868;BME280;33517;49.866;8.320;2023-02-03T10:33:45;101495.69;;;10.78;73.70
12868;BME280;33517;49.866;8.320;2023-02-03T10:36:52;101497.22;;;10.81;72.38
12868;BME280;33517;49.866;8.320;2023-02-03T10:39:46;101488.88;;;10.85;72.07
12868;BME280;33517;49.866;8.320;2023-02-03T10:42:39;101484.19;;;10.89;72.03
12868;BME280;33517;49.866;8.320;2023-02-03T10:45:48;101491.63;;;10.93;72.21
12868;BME280;33517;49.866;8.320;2023-02-03T10:48:40;101488.16;;;10.93;71.31
12868;BME280;33517;49.866;8.320;2023-02-03T10:51:35;101494.72;;;10.89;72.09
12868;BME280;33517;49.866;8.320;2023-02-03T10:54:31;101493.88;;;10.88;72.08
12868;BME280;33517;49.866;8.320;2023-02-03T10:57:24;101496.38;;;10.80;71.88
12868;BME280;33517;49.866;8.320;2023-02-03T11:00:21;101493.03;;;10.97;72.44
12868;BME280;33517;49.866;8.320;2023-02-03T11:03:22;101495.94;;;10.94;72.17
12868;BME280;33517;49.866;8.320;2023-02-03T11:06:16;101501.91;;;10.96;71.99
12868;BME280;33517;49.866;8.320;2023-02-03T11:09:21;101504.41;;;10.98;72.58
12868;BME280;33517;49.866;8.320;2023-02-03T11:12:17;101513.69;;;10.92;72.19
12868;BME280;33517;49.866;8.320;2023-02-03T11:15:13;101509.25;;;10.83;72.43
12868;BME280;33517;49.866;8.320;2023-02-03T11:18:34;101511.31;;;10.80;73.70
12868;BME280;33517;49.866;8.320;2023-02-03T11:21:29;101509.69;;;10.79;73.12
12868;BME280;33517;49.866;8.320;2023-02-03T11:24:25;101509.53;;;10.80;73.53
12868;BME280;33517;49.866;8.320;2023-02-03T11:27:19;101507.19;;;10.87;73.26
12868;BME280;33517;49.866;8.320;2023-02-03T11:30:15;101514.94;;;10.88;73.25
12868;BME280;33517;49.866;8.320;2023-02-03T11:33:15;101503.25;;;11.00;72.31
12868;BME280;33517;49.866;8.320;2023-02-03T11:36:10;101482.59;;;11.15;71.70
12868;BME280;33517;49.866;8.320;2023-02-03T11:39:13;101475.16;;;11.38;71.07
12868;BME280;33517;49.866;8.320;2023-02-03T11:42:21;101470.13;;;11.54;71.47
12868;BME280;33517;49.866;8.320;2023-02-03T11:45:17;101459.63;;;11.71;71.33
12868;BME280;33517;49.866;8.320;2023-02-03T11:48:22;101460.28;;;11.83;70.82
12868;BME280;33517;49.866;8.320;2023-02-03T11:51:20;101449.81;;;11.91;71.37
12868;BME280;33517;49.866;8.320;2023-02-03T11:54:23;101450.81;;;11.90;71.50
12868;BME280;33517;49.866;8.320;2023-02-03T11:57:27;101442.81;;;11.82;72.13
12868;BME280;33517;49.866;8.320;2023-02-03T12:00:29;101420.22;;;11.97;71.68
12868;BME280;33517;49.866;8.320;2023-02-03T12:03:41;101441.69;;;12.02;71.12
12868;BME280;33517;49.866;8.320;2023-02-03T12:06:48;101451.03;;;11.96;72.20
12868;BME280;33517;49.866;8.320;2023-02-03T12:09:51;101443.19;;;11.87;71.29
12868;BME280;33517;49.866;8.320;2023-02-03T12:12:57;101458.00;;;11.70;71.54
12868;BME280;33517;49.866;8.320;2023-02-03T12:16:02;101457.91;;;11.53;72.15
12868;BME280;33517;49.866;8.320;2023-02-03T12:19:07;101463.03;;;11.54;72.43
12868;BME280;33517;49.866;8.320;2023-02-03T12:22:07;101445.31;;;11.47;73.64
12868;BME280;33517;49.866;8.320;2023-02-03T12:25:17;101444.50;;;11.46;73.67
12868;BME280;33517;49.866;8.320;2023-02-03T12:28:24;101434.19;;;11.53;74.34
12868;BME280;33517;49.866;8.320;2023-02-03T12:31:26;101425.59;;;11.51;74.46
12868;BME280;33517;49.866;8.320;2023-02-03T12:34:23;101432.22;;;11.55;73.92
12868;BME280;33517;49.866;8.320;2023-02-03T12:37:22;101420.00;;;11.63;73.81
12868;BME280;33517;49.866;8.320;2023-02-03T12:40:20;101385.81;;;11.71;73.40
12868;BME280;33517;49.866;8.320;2023-02-03T12:43:23;101392.53;;;11.83;73.03
12868;BME280;33517;49.866;8.320;2023-02-03T12:46:23;101375.75;;;12.02;73.15
12868;BME280;33517;49.866;8.320;2023-02-03T12:49:26;101388.03;;;12.11;72.92
12868;BME280;33517;49.866;8.320;2023-02-03T12:52:22;101390.59;;;12.03;72.37
12868;BME280;33517;49.866;8.320;2023-02-03T12:55:21;101394.06;;;11.86;74.51
12868;BME280;33517;49.866;8.320;2023-02-03T12:58:23;101396.69;;;11.86;74.91
12868;BME280;33517;49.866;8.320;2023-02-03T13:01:20;101398.19;;;11.71;74.98
12868;BME280;33517;49.866;8.320;2023-02-03T13:04:19;101405.66;;;11.39;76.36
12868;BME280;33517;49.866;8.320;2023-02-03T13:07:20;101405.91;;;11.18;77.17
12868;BME280;33517;49.866;8.320;2023-02-03T13:10:18;101416.19;;;11.11;78.24
12868;BME280;33517;49.866;8.320;2023-02-03T13:13:15;101409.84;;;10.95;78.80
12868;BME280;33517;49.866;8.320;2023-02-03T13:16:10;101410.03;;;10.84;79.48
12868;BME280;33517;49.866;8.320;2023-02-03T13:19:06;101403.91;;;10.83;79.79
12868;BME280;33517;49.866;8.320;2023-02-03T13:22:01;101399.28;;;10.68;79.85
12868;BME280;33517;49.866;8.320;2023-02-03T13:25:00;101381.66;;;10.68;80.21
12868;BME280;33517;49.866;8.320;2023-02-03T13:28:06;101379.03;;;10.59;80.81
12868;BME280;33517;49.866;8.320;2023-02-03T13:31:21;101358.28;;;10.56;80.99
12868;BME280;33517;49.866;8.320;2023-02-03T13:34:45;101349.81;;;10.62;81.72
12868;BME280;33517;49.866;8.320;2023-02-03T13:37:59;101360.75;;;10.57;81.72
12868;BME280;33517;49.866;8.320;2023-02-03T13:41:02;101349.28;;;10.58;81.90
12868;BME280;33517;49.866;8.320;2023-02-03T13:43:56;101354.53;;;10.58;81.76
12868;BME280;33517;49.866;8.320;2023-02-03T13:46:51;101361.06;;;10.54;82.56
12868;BME280;33517;49.866;8.320;2023-02-03T13:49:47;101368.66;;;10.57;82.15
12868;BME280;33517;49.866;8.320;2023-02-03T13:52:44;101374.75;;;10.58;82.30
12868;BME280;33517;49.866;8.320;2023-02-03T13:55:41;101371.97;;;10.59;81.73
12868;BME280;33517;49.866;8.320;2023-02-03T13:58:35;101361.44;;;10.69;82.14
12868;BME280;33517;49.866;8.320;2023-02-03T14:01:33;101363.66;;;10.73;81.73
12868;BME280;33517;49.866;8.320;2023-02-03T14:04:53;101354.34;;;10.79;82.02
12868;BME280;33517;49.866;8.320;2023-02-03T14:07:45;101362.47;;;10.85;82.01
12868;BME280;33517;49.866;8.320;2023-02-03T14:10:37;101365.94;;;10.86;82.13
12868;BME280;33517;49.866;8.320;2023-02-03T14:13:29;101371.91;;;10.88;81.03
12868;BME280;33517;49.866;8.320;2023-02-03T14:16:23;101366.06;;;10.94;81.51
12868;BME280;33517;49.866;8.320;2023-02-03T14:19:55;101372.44;;;10.91;81.92
12868;BME280;33517;49.866;8.320;2023-02-03T14:22:47;101369.81;;;10.91;81.32
12868;BME280;33517;49.866;8.320;2023-02-03T14:25:41;101361.78;;;10.83;81.67
12868;BME280;33517;49.866;8.320;2023-02-03T14:28:38;101371.53;;;10.83;81.89
12868;BME280;33517;49.866;8.320;2023-02-03T14:31:31;101368.03;;;10.82;81.98
12868;BME280;33517;49.866;8.320;2023-02-03T14:34:33;101374.25;;;10.91;82.38
12868;BME280;33517;49.866;8.320;2023-02-03T14:37:28;101384.78;;;10.91;82.17
12868;BME280;33517;49.866;8.320;2023-02-03T14:40:32;101386.75;;;10.89;82.17
12868;BME280;33517;49.866;8.320;2023-02-03T14:43:32;101392.59;;;10.83;82.26
12868;BME280;33517;49.866;8.320;2023-02-03T14:50:21;101394.13;;;10.66;84.11
12868;BME280;33517;49.866;8.320;2023-02-03T14:53:32;101407.97;;;10.68;83.86
12868;BME280;33517;49.866;8.320;2023-02-03T14:56:36;101415.19;;;10.66;84.00
12868;BME280;33517;49.866;8.320;2023-02-03T14:59:47;101412.69;;;10.65;84.19
12868;BME280;33517;49.866;8.320;2023-02-03T15:03:15;101419.06;;;10.62;84.89
12868;BME280;33517;49.866;8.320;2023-02-03T15:06:38;101416.44;;;10.53;85.71
12868;BME280;33517;49.866;8.320;2023-02-03T15:09:37;101390.72;;;10.47;86.62
12868;BME280;33517;49.866;8.320;2023-02-03T15:12:34;101388.88;;;10.47;87.31
12868;BME280;33517;49.866;8.320;2023-02-03T15:15:29;101372.69;;;10.42;86.95
12868;BME280;33517;49.866;8.320;2023-02-03T15:18:28;101392.38;;;10.38;87.62
12868;BME280;33517;49.866;8.320;2023-02-03T15:21:20;101399.44;;;10.38;87.93
12868;BME280;33517;49.866;8.320;2023-02-03T15:24:14;101411.63;;;10.39;88.70
12868;BME280;33517;49.866;8.320;2023-02-03T15:27:20;101424.09;;;10.37;88.83
12868;BME280;33517;49.866;8.320;2023-02-03T15:30:17;101413.97;;;10.42;88.66
12868;BME280;33517;49.866;8.320;2023-02-03T15:33:14;101432.38;;;10.42;89.05
12868;BME280;33517;49.866;8.320;2023-02-03T15:36:11;101428.66;;;10.35;89.28
12868;BME280;33517;49.866;8.320;2023-02-03T15:39:13;101441.41;;;10.39;89.75